Glendive, MT

4:18 PM MDT on September 20, 2014 (GMT -0600)
Sidney-Richland Municipal | Change Station
CLOSE
Current Station
Airport
Location: Sidney-Richland,
Elevation: 1985 ft
Nearby Weather Stations

Elev 1985 ft 47.71 °N, 104.19 °W | Updated 3 minutes ago

Clear
Clear
72 °F
Feels Like 72 °F
N
17
Wind Variable Wind from WNW
Gusts 26 mph

Today
High -- | Low -- °F
--% Chance of Precip.
Yesterday
High -- | Low -- °F
Precip. -- in
6:43 AM 7:00 PM
Waning Crescent, 10% visible
Pressure 30.12 in
Visibility 10.0 miles
Clouds Clear
Dew Point 34 °F
Humidity 25%
Rainfall 0.00 in
Snow Depth 0 in , 0 in , 0 in
UV 2 out of 12
Pollen 5.00 out of 12
Air Quality Not available.
Flu Activity Not available.
METAR KSDY 202215Z AUTO 30015G23KT 10SM CLR 22/01 A3012 RMK AO1

More Conditions Fewer Conditions

Pressure 30.12 in
Visibility 10.0 miles
Clouds Clear
Dew Point 34 °F
Humidity 25%
Rainfall 0.00 in
Snow Depth 0 in , 0 in , 0 in
UV 2 out of 12
Pollen 5.00 out of 12
Air Quality Not available.
Flu Activity Not available.
METAR KSDY 202215Z AUTO 30015G23KT 10SM CLR 22/01 A3012 RMK AO1

More Conditions Fewer Conditions

10-Day Weather Forecast

Almanac

Astronomy

Sep. 20, 2014 Rise Set
Actual Time 6:43 AM MDT 7:00 PM MDT
Civil Twilight 6:12 AM MDT 7:30 PM MDT
Nautical Twilight 5:36 AM MDT 8:06 PM MDT
Astronomical Twilight 4:59 AM MDT 8:43 PM MDT
Moon 3:14 AM MDT 5:13 PM MDT
Length of Visible Light 13h 18m
Length of Day
12h 17m
Tomorrow will be 3m 20s shorter.
Waning Crescent, 10% of the Moon is Illuminated
Today
Waning Crescent
Sep 24
New
Oct 1
First Quarter
Oct 8
Full
Oct 15
Last Quarter

Today's Extremes

State Highs State Lows

Community

WunderPhotos

Upload Photos

1,754,968 photos uploaded!

WunderBlogs® & News

Nearby

Snow Depth

Station Depth Elevation
Sleeping Woman 0 in 6150 ft
Cole Creek 0 in 7850 ft
Brackett Creek 0 in 7320 ft
Hoodoo Basin 0 in 6050 ft
Lone Mountain 0 in 8880 ft

Earthquake Activity

City Distance Mag. Time & Date
No recent earthquake activity has been reported nearby.
Minimum magnitude displayed is 2.5.

Coastal Water Temperatures

Place Temperature
No Stations Reporting

Nearby Weather Stations